createdAt,value
2019-03-12T00:00:15.630Z,1019.03
2019-03-12T00:01:15.632Z,1019.02
2019-03-12T00:02:15.615Z,1018.99
2019-03-12T00:03:15.603Z,1018.99
2019-03-12T00:04:15.598Z,1018.95
2019-03-12T00:05:15.581Z,1019.03
2019-03-12T00:06:15.568Z,1018.96
2019-03-12T00:07:15.554Z,1019.01
2019-03-12T00:08:15.550Z,1019.02
2019-03-12T00:09:15.564Z,1019.04
2019-03-12T00:10:15.525Z,1019.05
2019-03-12T00:11:15.514Z,1019.08
2019-03-12T00:12:15.504Z,1019.09
2019-03-12T00:13:15.493Z,1019.11
2019-03-12T00:14:15.482Z,1019.13
2019-03-12T00:15:15.469Z,1019.11
2019-03-12T00:16:15.461Z,1019.13
2019-03-12T00:17:15.445Z,1019.14
2019-03-12T00:18:15.432Z,1019.11
2019-03-12T00:19:15.425Z,1019.06
2019-03-12T00:20:15.424Z,1019.16
2019-03-12T00:21:15.401Z,1019.14
2019-03-12T00:22:15.386Z,1019.11
2019-03-12T00:23:15.382Z,1019.13
2019-03-12T00:24:15.374Z,1019.10
2019-03-12T00:25:15.359Z,1019.10
2019-03-12T00:26:15.347Z,1019.14
2019-03-12T00:27:15.354Z,1019.15
2019-03-12T00:28:15.331Z,1019.14
2019-03-12T00:29:15.409Z,1019.16
2019-03-12T00:30:15.312Z,1019.20
2019-03-12T00:31:15.292Z,1019.19
2019-03-12T00:32:15.278Z,1019.20
2019-03-12T00:33:15.281Z,1019.14
2019-03-12T00:34:15.254Z,1019.12
2019-03-12T00:35:15.251Z,1019.08
2019-03-12T00:36:15.242Z,1019.10
2019-03-12T00:37:15.229Z,1019.07
2019-03-12T00:38:15.219Z,1019.06
2019-03-12T00:39:15.201Z,1019.06
2019-03-12T00:40:15.195Z,1019.05
2019-03-12T00:41:15.198Z,1019.04
2019-03-12T00:42:15.167Z,1019.05
2019-03-12T00:43:15.160Z,1019.02
2019-03-12T00:44:15.144Z,1019.01
2019-03-12T00:45:15.134Z,1019.01
2019-03-12T00:46:15.124Z,1018.99
2019-03-12T00:47:15.114Z,1019.01
2019-03-12T00:48:15.112Z,1019.02
2019-03-12T00:49:15.111Z,1019.03
2019-03-12T00:50:15.086Z,1019.04
2019-03-12T00:51:15.080Z,1018.98
2019-03-12T00:52:15.059Z,1018.93
2019-03-12T00:53:15.044Z,1018.92
2019-03-12T00:54:15.036Z,1018.95
2019-03-12T00:55:15.042Z,1018.95
2019-03-12T00:56:15.512Z,1018.94
2019-03-12T00:57:15.002Z,1018.91
2019-03-12T00:58:14.996Z,1018.90
2019-03-12T00:59:14.978Z,1018.87
2019-03-12T01:00:14.970Z,1018.83
2019-03-12T01:01:14.961Z,1018.84
2019-03-12T01:02:14.943Z,1018.83
2019-03-12T01:03:14.938Z,1018.83
2019-03-12T01:04:14.912Z,1018.86
2019-03-12T01:05:14.913Z,1018.84
2019-03-12T01:06:14.901Z,1018.84
2019-03-12T01:07:14.899Z,1018.81
2019-03-12T01:08:14.889Z,1018.87
2019-03-12T01:09:14.874Z,1018.86
2019-03-12T01:10:14.864Z,1018.90
2019-03-12T01:11:14.837Z,1018.83
2019-03-12T01:12:14.827Z,1018.80
2019-03-12T01:13:14.831Z,1018.80
2019-03-12T01:14:14.821Z,1018.77
2019-03-12T01:15:14.833Z,1018.78
2019-03-12T01:16:14.807Z,1018.79
2019-03-12T01:17:14.776Z,1018.80
2019-03-12T01:18:14.763Z,1018.80
2019-03-12T01:19:14.758Z,1018.79
2019-03-12T01:20:14.740Z,1018.75
2019-03-12T01:21:14.757Z,1018.81
2019-03-12T01:22:14.721Z,1018.81
2019-03-12T01:23:14.738Z,1018.83
2019-03-12T01:24:14.688Z,1018.82
2019-03-12T01:25:14.677Z,1018.79
2019-03-12T01:26:14.675Z,1018.79
2019-03-12T01:27:14.662Z,1018.76
2019-03-12T01:28:14.645Z,1018.75
2019-03-12T01:29:14.634Z,1018.77
2019-03-12T01:30:14.626Z,1018.76
2019-03-12T01:31:14.611Z,1018.74
2019-03-12T01:32:14.603Z,1018.74
2019-03-12T01:33:14.613Z,1018.70
2019-03-12T01:34:14.585Z,1018.68
2019-03-12T01:35:14.578Z,1018.65
2019-03-12T01:36:14.552Z,1018.65
2019-03-12T01:37:14.546Z,1018.67
2019-03-12T01:38:14.537Z,1018.67
2019-03-12T01:39:14.525Z,1018.67
2019-03-12T01:40:14.517Z,1018.65
2019-03-12T01:41:14.530Z,1018.62
2019-03-12T01:42:14.497Z,1018.63
2019-03-12T01:43:14.483Z,1018.61
2019-03-12T01:44:14.477Z,1018.63
2019-03-12T01:45:14.469Z,1018.62
2019-03-12T01:46:14.446Z,1018.59
2019-03-12T01:47:14.439Z,1018.59
2019-03-12T01:48:14.418Z,1018.59
2019-03-12T01:49:14.414Z,1018.53
2019-03-12T01:50:14.407Z,1018.51
2019-03-12T01:51:14.393Z,1018.49
2019-03-12T01:52:14.380Z,1018.52
2019-03-12T01:53:14.370Z,1018.51
2019-03-12T01:54:14.362Z,1018.49
2019-03-12T01:55:14.360Z,1018.52
2019-03-12T01:56:14.342Z,1018.52
2019-03-12T01:57:14.320Z,1018.54
2019-03-12T01:58:14.726Z,1018.48
2019-03-12T01:59:14.303Z,1018.51
2019-03-12T02:00:14.286Z,1018.48
2019-03-12T02:01:14.279Z,1018.47
2019-03-12T02:02:14.268Z,1018.47
2019-03-12T02:03:14.259Z,1018.43
2019-03-12T02:04:14.246Z,1018.45
2019-03-12T02:05:14.236Z,1018.45
2019-03-12T02:06:14.283Z,1018.43
2019-03-12T02:07:14.212Z,1018.46
2019-03-12T02:08:14.198Z,1018.43
2019-03-12T02:09:14.190Z,1018.45
2019-03-12T02:10:14.176Z,1018.46
2019-03-12T02:11:14.168Z,1018.45
2019-03-12T02:12:14.155Z,1018.41
2019-03-12T02:13:14.145Z,1018.40
2019-03-12T02:14:14.133Z,1018.42
2019-03-12T02:15:14.123Z,1018.41
2019-03-12T02:16:14.119Z,1018.37
2019-03-12T02:17:14.099Z,1018.37
2019-03-12T02:18:14.091Z,1018.41
2019-03-12T02:19:14.085Z,1018.34
2019-03-12T02:20:14.063Z,1018.36
2019-03-12T02:21:14.052Z,1018.36
2019-03-12T02:22:14.036Z,1018.33
2019-03-12T02:23:14.028Z,1018.28
2019-03-12T02:24:14.017Z,1018.27
2019-03-12T02:25:14.007Z,1018.26
2019-03-12T02:26:14.000Z,1018.27
2019-03-12T02:27:13.989Z,1018.33
2019-03-12T02:28:13.970Z,1018.30
2019-03-12T02:29:13.963Z,1018.34
2019-03-12T02:30:13.957Z,1018.33
2019-03-12T02:31:13.936Z,1018.37
2019-03-12T02:32:13.929Z,1018.32
2019-03-12T02:33:13.916Z,1018.31
2019-03-12T02:34:13.906Z,1018.33
2019-03-12T02:35:13.897Z,1018.29
2019-03-12T02:36:13.884Z,1018.24
2019-03-12T02:37:13.872Z,1018.19
2019-03-12T02:38:13.858Z,1018.17
2019-03-12T02:39:13.858Z,1018.15
2019-03-12T02:40:13.837Z,1018.16
2019-03-12T02:41:13.826Z,1018.13
2019-03-12T02:42:13.821Z,1018.05
2019-03-12T02:43:13.802Z,1018.04
2019-03-12T02:44:13.802Z,1018.01
2019-03-12T02:45:13.784Z,1017.98
2019-03-12T02:46:13.774Z,1018.00
2019-03-12T02:47:13.758Z,1018.01
2019-03-12T02:48:13.750Z,1018.01
2019-03-12T02:49:13.739Z,1018.00
2019-03-12T02:50:13.719Z,1018.04
2019-03-12T02:51:13.719Z,1018.05
2019-03-12T02:52:13.696Z,1018.01
2019-03-12T02:53:13.687Z,1018.03
2019-03-12T02:54:13.682Z,1018.04
2019-03-12T02:55:13.663Z,1018.03
2019-03-12T02:56:13.656Z,1018.06
2019-03-12T02:57:13.645Z,1018.03
2019-03-12T02:58:13.640Z,1018.06
2019-03-12T02:59:13.620Z,1018.05
2019-03-12T03:00:13.609Z,1018.01
2019-03-12T03:01:13.712Z,1017.98
2019-03-12T03:02:13.587Z,1018.00
2019-03-12T03:03:13.577Z,1018.03
2019-03-12T03:04:13.563Z,1018.02
2019-03-12T03:05:13.549Z,1018.00
2019-03-12T03:06:13.546Z,1017.97
2019-03-12T03:07:13.537Z,1017.97
2019-03-12T03:08:13.519Z,1018.00
2019-03-12T03:09:13.512Z,1017.98
2019-03-12T03:10:13.495Z,1018.02
2019-03-12T03:11:13.490Z,1018.04
2019-03-12T03:12:13.464Z,1018.04
2019-03-12T03:13:13.462Z,1018.03
2019-03-12T03:14:13.448Z,1018.02
2019-03-12T03:15:13.433Z,1018.04
2019-03-12T03:16:13.432Z,1017.97
2019-03-12T03:17:13.415Z,1018.01
2019-03-12T03:18:13.396Z,1017.99
2019-03-12T03:19:13.386Z,1018.01
2019-03-12T03:20:13.382Z,1018.01
2019-03-12T03:21:13.369Z,1018.00
2019-03-12T03:22:13.364Z,1018.07
2019-03-12T03:23:13.347Z,1018.04
2019-03-12T03:24:13.333Z,1018.03
2019-03-12T03:25:13.324Z,1018.06
2019-03-12T03:26:13.307Z,1018.04
2019-03-12T03:27:13.297Z,1018.06
2019-03-12T03:28:13.302Z,1018.04
2019-03-12T03:29:13.308Z,1018.02
2019-03-12T03:30:13.273Z,1017.98
2019-03-12T03:31:13.268Z,1018.00
2019-03-12T03:32:13.239Z,1017.99
2019-03-12T03:33:13.222Z,1018.01
2019-03-12T03:34:13.220Z,1017.94
2019-03-12T03:35:13.209Z,1017.91
2019-03-12T03:36:13.197Z,1017.95
2019-03-12T03:37:13.197Z,1017.90
2019-03-12T03:38:13.174Z,1017.86
2019-03-12T03:39:13.165Z,1017.87
2019-03-12T03:40:13.150Z,1017.87
2019-03-12T03:41:13.140Z,1017.85
2019-03-12T03:42:13.127Z,1017.84
2019-03-12T03:43:13.119Z,1017.80
2019-03-12T03:44:13.097Z,1017.80
2019-03-12T03:45:13.101Z,1017.80
2019-03-12T03:46:13.086Z,1017.83
2019-03-12T03:47:13.070Z,1017.84
2019-03-12T03:48:13.062Z,1017.85
2019-03-12T03:49:13.052Z,1017.82
2019-03-12T03:50:13.056Z,1017.80
2019-03-12T03:51:13.029Z,1017.83
2019-03-12T03:52:13.024Z,1017.79
2019-03-12T03:53:13.007Z,1017.78
2019-03-12T03:54:12.992Z,1017.74
2019-03-12T03:55:12.984Z,1017.72
2019-03-12T03:56:12.967Z,1017.79
2019-03-12T03:57:12.958Z,1017.75
2019-03-12T03:58:12.946Z,1017.72
2019-03-12T03:59:12.937Z,1017.75
2019-03-12T04:00:12.933Z,1017.69
2019-03-12T04:01:12.923Z,1017.71
2019-03-12T04:02:12.901Z,1017.63
2019-03-12T04:03:12.895Z,1017.64
2019-03-12T04:04:12.875Z,1017.64
2019-03-12T04:05:12.876Z,1017.65
2019-03-12T04:06:12.860Z,1017.63
2019-03-12T04:07:12.842Z,1017.59
2019-03-12T04:08:12.836Z,1017.63
2019-03-12T04:09:12.842Z,1017.60
2019-03-12T04:10:12.816Z,1017.61
2019-03-12T04:11:12.798Z,1017.61
2019-03-12T04:12:12.793Z,1017.58
2019-03-12T04:13:12.783Z,1017.60
2019-03-12T04:14:12.769Z,1017.57
2019-03-12T04:15:12.774Z,1017.52
2019-03-12T04:16:12.754Z,1017.52
2019-03-12T04:17:12.727Z,1017.53
2019-03-12T04:18:12.722Z,1017.48
2019-03-12T04:19:12.730Z,1017.44
2019-03-12T04:20:12.842Z,1017.41
2019-03-12T04:21:12.691Z,1017.41
2019-03-12T04:22:12.692Z,1017.34
2019-03-12T04:23:15.800Z,1017.31
2019-03-12T04:24:12.651Z,1017.26
2019-03-12T04:25:12.650Z,1017.32
2019-03-12T04:26:12.637Z,1017.32
2019-03-12T04:27:12.629Z,1017.29
2019-03-12T04:28:12.608Z,1017.31
2019-03-12T04:29:12.605Z,1017.35
2019-03-12T04:30:12.585Z,1017.33
2019-03-12T04:31:12.576Z,1017.31
2019-03-12T04:32:12.565Z,1017.34
2019-03-12T04:33:12.557Z,1017.31
2019-03-12T04:34:12.563Z,1017.27
2019-03-12T04:35:12.541Z,1017.27
2019-03-12T04:36:12.527Z,1017.31
2019-03-12T04:37:12.511Z,1017.19
2019-03-12T04:38:12.507Z,1017.21
2019-03-12T04:39:12.499Z,1017.24
2019-03-12T04:40:12.470Z,1017.22
2019-03-12T04:41:12.463Z,1017.17
2019-03-12T04:42:12.458Z,1017.17
2019-03-12T04:43:12.446Z,1017.23
2019-03-12T04:44:12.428Z,1017.18
2019-03-12T04:45:12.432Z,1017.16
2019-03-12T04:46:12.414Z,1017.13
2019-03-12T04:47:12.401Z,1017.14
2019-03-12T04:48:12.389Z,1017.12
2019-03-12T04:49:12.376Z,1017.13
2019-03-12T04:50:12.368Z,1017.13
2019-03-12T04:51:12.405Z,1017.09
2019-03-12T04:52:12.352Z,1017.10
2019-03-12T04:53:12.355Z,1017.11
2019-03-12T04:54:12.313Z,1017.08
2019-03-12T04:55:12.306Z,1017.08
2019-03-12T04:56:12.324Z,1017.10
2019-03-12T04:57:12.297Z,1017.03
2019-03-12T04:58:12.279Z,1016.99
2019-03-12T04:59:12.271Z,1016.92
2019-03-12T05:00:12.257Z,1016.95
2019-03-12T05:01:12.241Z,1016.95
2019-03-12T05:02:12.230Z,1016.93
2019-03-12T05:03:12.227Z,1016.90
2019-03-12T05:04:12.208Z,1016.92
2019-03-12T05:05:12.209Z,1016.87
2019-03-12T05:06:12.202Z,1016.91
2019-03-12T05:07:12.173Z,1016.89
2019-03-12T05:08:12.165Z,1016.89
2019-03-12T05:09:12.926Z,1016.87
2019-03-12T05:10:12.147Z,1016.92
2019-03-12T05:11:12.145Z,1016.93
2019-03-12T05:12:12.127Z,1016.85
2019-03-12T05:13:12.133Z,1016.87
2019-03-12T05:14:12.588Z,1016.85
2019-03-12T05:15:12.093Z,1016.81
2019-03-12T05:16:14.282Z,1016.80
2019-03-12T05:17:12.192Z,1016.83
2019-03-12T05:18:12.059Z,1016.80
2019-03-12T05:19:12.043Z,1016.70
2019-03-12T05:20:12.025Z,1016.69
2019-03-12T05:21:12.021Z,1016.74
2019-03-12T05:22:12.014Z,1016.69
2019-03-12T05:23:12.006Z,1016.71
2019-03-12T05:24:11.995Z,1016.69
2019-03-12T05:25:11.990Z,1016.68
2019-03-12T05:26:11.962Z,1016.68
2019-03-12T05:27:11.964Z,1016.62
2019-03-12T05:28:11.949Z,1016.65
2019-03-12T05:29:11.933Z,1016.63
2019-03-12T05:30:11.925Z,1016.59
2019-03-12T05:31:11.933Z,1016.59
2019-03-12T05:32:11.903Z,1016.57
2019-03-12T05:33:11.885Z,1016.54
2019-03-12T05:34:11.879Z,1016.52
2019-03-12T05:35:11.871Z,1016.53
2019-03-12T05:36:11.855Z,1016.53
2019-03-12T05:37:42.584Z,1016.52
2019-03-12T05:38:11.835Z,1016.50
2019-03-12T05:39:11.826Z,1016.52
2019-03-12T05:40:11.806Z,1016.51
2019-03-12T05:41:12.457Z,1016.54
2019-03-12T05:42:11.795Z,1016.51
2019-03-12T05:43:11.780Z,1016.45
2019-03-12T05:44:11.767Z,1016.45
2019-03-12T05:45:11.755Z,1016.40
2019-03-12T05:46:11.743Z,1016.50
2019-03-12T05:47:11.742Z,1016.52
2019-03-12T05:48:11.727Z,1016.50
2019-03-12T05:49:11.714Z,1016.48
2019-03-12T05:50:11.698Z,1016.49
2019-03-12T05:51:11.690Z,1016.51
2019-03-12T05:52:11.674Z,1016.52
2019-03-12T05:53:11.671Z,1016.52
2019-03-12T05:54:11.658Z,1016.51
2019-03-12T05:55:11.653Z,1016.46
2019-03-12T05:56:11.639Z,1016.52
2019-03-12T05:57:11.621Z,1016.52
2019-03-12T05:58:11.614Z,1016.50
2019-03-12T05:59:11.609Z,1016.48
2019-03-12T06:00:11.594Z,1016.52
2019-03-12T06:01:11.586Z,1016.46
2019-03-12T06:02:11.571Z,1016.44
2019-03-12T06:03:11.555Z,1016.41
2019-03-12T06:04:11.562Z,1016.42
2019-03-12T06:05:11.545Z,1016.35
2019-03-12T06:06:11.528Z,1016.35
2019-03-12T06:07:11.519Z,1016.32
2019-03-12T06:08:11.504Z,1016.30
2019-03-12T06:09:11.512Z,1016.30
2019-03-12T06:10:11.487Z,1016.31
2019-03-12T06:11:11.474Z,1016.31
2019-03-12T06:12:11.464Z,1016.26
2019-03-12T06:13:11.452Z,1016.26
2019-03-12T06:14:11.440Z,1016.22
2019-03-12T06:15:11.441Z,1016.17
2019-03-12T06:16:11.424Z,1016.16
2019-03-12T06:17:11.414Z,1016.12
2019-03-12T06:18:11.396Z,1016.11
2019-03-12T06:19:11.398Z,1016.14
2019-03-12T06:20:11.383Z,1016.08
2019-03-12T06:21:11.369Z,1016.09
2019-03-12T06:22:12.139Z,1016.11
2019-03-12T06:23:11.405Z,1016.09
2019-03-12T06:24:11.336Z,1016.07
2019-03-12T06:25:11.319Z,1016.11
2019-03-12T06:26:11.313Z,1016.09
2019-03-12T06:27:11.311Z,1016.05
2019-03-12T06:28:11.297Z,1016.02
2019-03-12T06:29:11.280Z,1015.94
2019-03-12T06:30:11.273Z,1016.00
2019-03-12T06:31:11.262Z,1016.03
2019-03-12T06:32:11.252Z,1015.93
2019-03-12T06:33:11.247Z,1015.93
2019-03-12T06:34:11.241Z,1015.91
2019-03-12T06:35:11.220Z,1015.85
2019-03-12T06:36:11.207Z,1015.91
2019-03-12T06:37:11.201Z,1015.81
2019-03-12T06:38:11.196Z,1015.84
2019-03-12T06:39:11.199Z,1015.82
2019-03-12T06:40:11.169Z,1015.78
2019-03-12T06:41:11.161Z,1015.76
2019-03-12T06:42:11.148Z,1015.75
2019-03-12T06:43:11.142Z,1015.67
2019-03-12T06:44:11.127Z,1015.69
2019-03-12T06:45:13.429Z,1015.68
2019-03-12T06:46:11.116Z,1015.66
2019-03-12T06:47:11.088Z,1015.64
2019-03-12T06:48:11.084Z,1015.54
2019-03-12T06:49:11.074Z,1015.55
2019-03-12T06:50:11.067Z,1015.52
2019-03-12T06:51:11.054Z,1015.53
2019-03-12T06:52:11.043Z,1015.55
2019-03-12T06:53:11.036Z,1015.52
2019-03-12T06:54:11.041Z,1015.50
2019-03-12T06:55:11.014Z,1015.51
2019-03-12T06:56:11.003Z,1015.44
2019-03-12T06:57:11.042Z,1015.45
2019-03-12T06:58:10.987Z,1015.45
2019-03-12T06:59:10.972Z,1015.42
2019-03-12T07:00:10.985Z,1015.47
2019-03-12T07:01:10.957Z,1015.39
2019-03-12T07:02:10.944Z,1015.41
2019-03-12T07:03:10.936Z,1015.38
2019-03-12T07:04:12.479Z,1015.38
2019-03-12T07:05:10.915Z,1015.38
2019-03-12T07:06:10.908Z,1015.36
2019-03-12T07:07:11.780Z,1015.36
2019-03-12T07:08:10.882Z,1015.29
2019-03-12T07:09:10.876Z,1015.38
2019-03-12T07:10:10.864Z,1015.38
2019-03-12T07:11:10.856Z,1015.36
2019-03-12T07:12:10.848Z,1015.37
2019-03-12T07:13:10.841Z,1015.33
2019-03-12T07:14:10.827Z,1015.31
2019-03-12T07:15:10.824Z,1015.28
2019-03-12T07:16:10.813Z,1015.24
2019-03-12T07:17:10.802Z,1015.25
2019-03-12T07:18:10.794Z,1015.22
2019-03-12T07:19:10.779Z,1015.24
2019-03-12T07:20:13.182Z,1015.16
2019-03-12T07:21:10.793Z,1015.12
2019-03-12T07:22:10.749Z,1015.13
2019-03-12T07:23:10.754Z,1015.05
2019-03-12T07:24:13.215Z,1015.06
2019-03-12T07:25:10.724Z,1015.06
2019-03-12T07:26:10.711Z,1015.05
2019-03-12T07:27:10.706Z,1014.99
2019-03-12T07:28:10.689Z,1014.99
2019-03-12T07:29:10.690Z,1014.95
2019-03-12T07:30:12.919Z,1014.96
2019-03-12T07:31:10.753Z,1014.93
2019-03-12T07:32:10.659Z,1014.95
2019-03-12T07:33:10.663Z,1014.95
2019-03-12T07:34:10.642Z,1014.91
2019-03-12T07:35:10.633Z,1014.91
2019-03-12T07:36:10.643Z,1014.90
2019-03-12T07:37:10.612Z,1014.86
2019-03-12T07:38:10.599Z,1014.84
2019-03-12T07:39:10.621Z,1014.80
2019-03-12T07:40:10.585Z,1014.80
2019-03-12T07:41:22.787Z,1014.75
2019-03-12T07:42:10.571Z,1014.75
2019-03-12T07:43:10.565Z,1014.71
2019-03-12T07:44:10.557Z,1014.69
2019-03-12T07:45:10.553Z,1014.65
2019-03-12T07:46:10.542Z,1014.67
2019-03-12T07:47:10.526Z,1014.58
2019-03-12T07:48:10.512Z,1014.64
2019-03-12T07:49:10.511Z,1014.59
2019-03-12T07:50:10.502Z,1014.64
2019-03-12T07:51:10.499Z,1014.56
2019-03-12T07:52:10.485Z,1014.56
2019-03-12T07:53:10.490Z,1014.58
2019-03-12T07:54:10.465Z,1014.49
2019-03-12T07:55:10.461Z,1014.52
2019-03-12T07:56:10.481Z,1014.51
2019-03-12T07:57:10.443Z,1014.54
2019-03-12T07:58:10.439Z,1014.51
2019-03-12T07:59:10.426Z,1014.48
2019-03-12T08:00:10.420Z,1014.49
2019-03-12T08:01:10.403Z,1014.35
2019-03-12T08:02:10.402Z,1014.40
2019-03-12T08:03:10.394Z,1014.45
2019-03-12T08:04:10.386Z,1014.42
2019-03-12T08:05:10.385Z,1014.45
2019-03-12T08:06:10.369Z,1014.41
2019-03-12T08:07:13.019Z,1014.37
2019-03-12T08:08:10.353Z,1014.40
2019-03-12T08:09:10.346Z,1014.45
2019-03-12T08:10:10.345Z,1014.42
2019-03-12T08:11:10.329Z,1014.39
2019-03-12T08:12:10.319Z,1014.46
2019-03-12T08:13:10.314Z,1014.41
2019-03-12T08:14:10.307Z,1014.37
2019-03-12T08:15:22.549Z,1014.41
2019-03-12T08:16:10.289Z,1014.41
2019-03-12T08:17:10.282Z,1014.35
2019-03-12T08:18:10.272Z,1014.37
2019-03-12T08:19:10.271Z,1014.30
2019-03-12T08:20:10.727Z,1014.25
2019-03-12T08:21:21.901Z,1014.26
2019-03-12T08:22:10.243Z,1014.21
2019-03-12T08:23:10.242Z,1014.23
2019-03-12T08:24:13.418Z,1014.18
2019-03-12T08:25:10.221Z,1014.20
2019-03-12T08:26:10.216Z,1014.07
2019-03-12T08:27:10.203Z,1014.06
2019-03-12T08:28:10.199Z,1013.98
2019-03-12T08:29:10.194Z,1014.00
2019-03-12T08:30:10.180Z,1013.91
2019-03-12T08:31:10.176Z,1013.89
2019-03-12T08:32:10.168Z,1013.92
2019-03-12T08:33:10.162Z,1013.99
2019-03-12T08:34:10.155Z,1013.93
2019-03-12T08:35:10.142Z,1013.90
2019-03-12T08:36:10.137Z,1013.88
2019-03-12T08:37:10.131Z,1013.79
2019-03-12T08:38:10.124Z,1013.88
2019-03-12T08:39:10.136Z,1013.73
2019-03-12T08:40:10.115Z,1013.72
2019-03-12T08:41:10.092Z,1013.72
2019-03-12T08:42:10.086Z,1013.73
2019-03-12T08:43:10.083Z,1013.63
2019-03-12T08:44:10.084Z,1013.60
2019-03-12T08:45:11.171Z,1013.60
2019-03-12T08:46:10.063Z,1013.60
2019-03-12T08:47:10.052Z,1013.64
2019-03-12T08:48:12.624Z,1013.72
2019-03-12T08:49:10.037Z,1013.67
2019-03-12T08:50:10.030Z,1013.67
2019-03-12T08:51:10.023Z,1013.72
2019-03-12T08:52:10.030Z,1013.70
2019-03-12T08:53:10.021Z,1013.69
2019-03-12T08:54:09.999Z,1013.75
2019-03-12T08:55:10.001Z,1013.72
2019-03-12T08:56:09.991Z,1013.71
2019-03-12T08:57:09.991Z,1013.75
2019-03-12T08:58:09.975Z,1013.66
2019-03-12T08:59:09.965Z,1013.55
2019-03-12T09:00:09.960Z,1013.56
2019-03-12T09:01:09.946Z,1013.38
2019-03-12T09:02:09.942Z,1013.51
2019-03-12T09:03:09.941Z,1013.34
2019-03-12T09:04:09.929Z,1013.43
2019-03-12T09:05:09.929Z,1013.42
2019-03-12T09:06:09.923Z,1013.47
2019-03-12T09:07:09.921Z,1013.46
2019-03-12T09:08:09.909Z,1013.41
2019-03-12T09:09:09.897Z,1013.41
2019-03-12T09:10:09.894Z,1013.30
2019-03-12T09:11:09.887Z,1013.38
2019-03-12T09:12:09.878Z,1013.35
2019-03-12T09:13:09.880Z,1013.30
2019-03-12T09:14:09.881Z,1013.29
2019-03-12T09:15:09.885Z,1013.28
2019-03-12T09:16:09.900Z,1013.22
2019-03-12T09:17:09.846Z,1013.24
2019-03-12T09:18:09.843Z,1013.19
2019-03-12T09:19:09.830Z,1013.14
2019-03-12T09:20:09.835Z,1013.14
2019-03-12T09:21:09.824Z,1013.07
2019-03-12T09:22:09.816Z,1013.07
2019-03-12T09:23:09.816Z,1013.02
2019-03-12T09:24:09.800Z,1012.95
2019-03-12T09:25:11.670Z,1012.98
2019-03-12T09:26:09.786Z,1012.93
2019-03-12T09:27:09.787Z,1013.00
2019-03-12T09:28:09.773Z,1012.91
2019-03-12T09:29:09.772Z,1012.94
2019-03-12T09:30:09.765Z,1012.88
2019-03-12T09:31:09.757Z,1012.78
2019-03-12T09:32:09.765Z,1012.77
2019-03-12T09:33:09.788Z,1012.77
2019-03-12T09:34:09.736Z,1012.77
2019-03-12T09:35:09.736Z,1012.79
2019-03-12T09:36:09.727Z,1012.77
2019-03-12T09:37:09.718Z,1012.71
2019-03-12T09:38:09.724Z,1012.68
2019-03-12T09:39:09.695Z,1012.67
2019-03-12T09:40:09.703Z,1012.64
2019-03-12T09:41:09.700Z,1012.61
2019-03-12T09:42:09.687Z,1012.57
2019-03-12T09:43:09.679Z,1012.49
2019-03-12T09:44:09.694Z,1012.52
2019-03-12T09:45:09.674Z,1012.58
2019-03-12T09:46:09.666Z,1012.54
2019-03-12T09:47:09.655Z,1012.47
2019-03-12T09:48:09.657Z,1012.44
2019-03-12T09:49:09.661Z,1012.52
2019-03-12T09:50:09.647Z,1012.33
2019-03-12T09:51:09.646Z,1012.38
2019-03-12T09:52:09.628Z,1012.26
2019-03-12T09:53:09.624Z,1012.27
2019-03-12T09:54:09.611Z,1012.25
2019-03-12T09:55:09.608Z,1012.16
2019-03-12T09:56:09.614Z,1012.17
2019-03-12T09:57:09.618Z,1012.19
2019-03-12T09:58:09.599Z,1012.21
2019-03-12T09:59:09.604Z,1012.07
2019-03-12T10:00:16.300Z,1012.05
2019-03-12T10:01:09.587Z,1011.98
2019-03-12T10:02:09.571Z,1011.97
2019-03-12T10:03:09.563Z,1011.92
2019-03-12T10:04:09.581Z,1011.87
2019-03-12T10:05:09.566Z,1011.93
2019-03-12T10:06:09.551Z,1011.93
2019-03-12T10:07:09.544Z,1011.89
2019-03-12T10:08:09.539Z,1011.85
2019-03-12T10:09:09.537Z,1011.79
2019-03-12T10:10:09.523Z,1011.80
2019-03-12T10:11:09.512Z,1011.77
2019-03-12T10:12:09.524Z,1011.81
2019-03-12T10:13:09.515Z,1011.84
2019-03-12T10:14:09.505Z,1011.80
2019-03-12T10:15:09.493Z,1011.79
2019-03-12T10:16:09.489Z,1011.69
2019-03-12T10:17:09.486Z,1011.71
2019-03-12T10:18:09.480Z,1011.74
2019-03-12T10:19:09.481Z,1011.62
2019-03-12T10:20:09.469Z,1011.61
2019-03-12T10:21:09.464Z,1011.50
2019-03-12T10:22:09.484Z,1011.72
2019-03-12T10:23:09.446Z,1011.62
2019-03-12T10:24:09.457Z,1011.49
2019-03-12T10:25:09.466Z,1011.54
2019-03-12T10:26:09.433Z,1011.46
2019-03-12T10:27:09.428Z,1011.41
2019-03-12T10:28:09.428Z,1011.48
2019-03-12T10:29:09.424Z,1011.45
2019-03-12T10:30:09.413Z,1011.47
2019-03-12T10:31:09.411Z,1011.46
2019-03-12T10:32:09.395Z,1011.42
2019-03-12T10:33:09.399Z,1011.43
2019-03-12T10:34:09.389Z,1011.37
2019-03-12T10:35:09.391Z,1011.37
2019-03-12T10:36:09.479Z,1011.34
2019-03-12T10:37:12.501Z,1011.33
2019-03-12T10:38:09.374Z,1011.33
2019-03-12T10:39:09.360Z,1011.26
2019-03-12T10:40:09.352Z,1011.24
2019-03-12T10:41:09.353Z,1011.19
2019-03-12T10:42:09.337Z,1011.08
2019-03-12T10:43:09.330Z,1011.16
2019-03-12T10:44:09.335Z,1011.14
2019-03-12T10:45:09.324Z,1011.00
2019-03-12T10:46:09.318Z,1011.09
2019-03-12T10:47:09.299Z,1010.95
2019-03-12T10:48:09.302Z,1010.90
2019-03-12T10:49:09.293Z,1011.02
2019-03-12T10:50:09.283Z,1010.94
2019-03-12T10:51:09.299Z,1010.88
2019-03-12T10:52:09.277Z,1010.83
2019-03-12T10:53:09.278Z,1010.81
2019-03-12T10:54:09.269Z,1010.78
2019-03-12T10:55:13.609Z,1010.80
2019-03-12T10:56:09.255Z,1010.74
2019-03-12T10:57:09.250Z,1010.78
2019-03-12T10:58:09.248Z,1010.73
2019-03-12T10:59:09.251Z,1010.68
2019-03-12T11:00:09.269Z,1010.66
2019-03-12T11:01:09.230Z,1010.68
2019-03-12T11:02:09.222Z,1010.64
2019-03-12T11:03:09.217Z,1010.63
2019-03-12T11:04:09.211Z,1010.54
2019-03-12T11:05:09.203Z,1010.52
2019-03-12T11:06:09.200Z,1010.48
2019-03-12T11:07:16.336Z,1010.46
2019-03-12T11:08:09.206Z,1010.46
2019-03-12T11:09:09.180Z,1010.43
2019-03-12T11:10:09.180Z,1010.35
2019-03-12T11:11:09.172Z,1010.31
2019-03-12T11:12:09.167Z,1010.33
2019-03-12T11:13:09.183Z,1010.26
2019-03-12T11:14:09.153Z,1010.32
2019-03-12T11:15:09.157Z,1010.24
2019-03-12T11:16:09.143Z,1010.22
2019-03-12T11:17:09.143Z,1010.15
2019-03-12T11:18:09.136Z,1010.08
2019-03-12T11:19:09.127Z,1010.13
2019-03-12T11:20:09.125Z,1010.07
2019-03-12T11:21:09.143Z,1010.03
2019-03-12T11:22:09.112Z,1010.05
2019-03-12T11:23:09.108Z,1009.99
2019-03-12T11:24:09.104Z,1009.99
2019-03-12T11:25:09.120Z,1009.96
2019-03-12T11:26:09.089Z,1009.98
2019-03-12T11:27:09.084Z,1009.89
2019-03-12T11:28:09.091Z,1009.98
2019-03-12T11:29:09.077Z,1009.90
2019-03-12T11:30:09.069Z,1009.96
2019-03-12T11:31:09.068Z,1009.94
2019-03-12T11:32:09.063Z,1009.88
2019-03-12T11:33:09.047Z,1009.93
2019-03-12T11:34:09.049Z,1009.92
2019-03-12T11:35:09.050Z,1009.84
2019-03-12T11:36:09.066Z,1009.84
2019-03-12T11:37:09.059Z,1009.88
2019-03-12T11:38:09.043Z,1009.83
2019-03-12T11:39:09.038Z,1009.83
2019-03-12T11:40:09.033Z,1009.73
2019-03-12T11:41:09.048Z,1009.69
2019-03-12T11:42:09.040Z,1009.69
2019-03-12T11:43:09.046Z,1009.63
2019-03-12T11:44:09.017Z,1009.68
2019-03-12T11:45:15.148Z,1009.65
2019-03-12T11:46:08.992Z,1009.67
2019-03-12T11:47:09.030Z,1009.70
2019-03-12T11:48:09.021Z,1009.65
2019-03-12T11:49:08.972Z,1009.53
2019-03-12T11:50:08.974Z,1009.53
2019-03-12T11:51:08.956Z,1009.47
2019-03-12T11:52:09.017Z,1009.39
2019-03-12T11:53:08.983Z,1009.42
2019-03-12T11:54:08.949Z,1009.37
2019-03-12T11:55:08.942Z,1009.43
2019-03-12T11:56:09.002Z,1009.38
2019-03-12T11:57:08.953Z,1009.31
2019-03-12T11:58:08.926Z,1009.31
2019-03-12T11:59:08.939Z,1009.20
2019-03-12T12:00:08.975Z,1009.15
2019-03-12T12:01:08.981Z,1009.15
2019-03-12T12:02:08.902Z,1009.15
2019-03-12T12:03:08.910Z,1009.07
2019-03-12T12:04:08.891Z,1009.12
2019-03-12T12:05:08.895Z,1009.02